createdAt,value
2023-05-09T00:00:07.413Z,18.23
2023-05-09T00:01:08.779Z,18.18
2023-05-09T00:02:09.218Z,18.09
2023-05-09T00:03:10.179Z,17.83
2023-05-09T00:04:11.005Z,17.62
2023-05-09T00:05:12.179Z,17.49
2023-05-09T00:06:12.670Z,17.45
2023-05-09T00:07:13.632Z,17.34
2023-05-09T00:08:14.531Z,17.24
2023-05-09T00:09:15.413Z,17.07
2023-05-09T00:10:16.281Z,16.98
2023-05-09T00:11:17.138Z,16.97
2023-05-09T00:12:18.017Z,16.92
2023-05-09T00:13:19.113Z,16.80
2023-05-09T00:14:19.482Z,16.74
2023-05-09T00:15:20.337Z,16.88
2023-05-09T00:16:21.224Z,17.02
2023-05-09T00:17:22.099Z,17.25
2023-05-09T00:18:22.963Z,17.37
2023-05-09T00:19:23.851Z,17.50
2023-05-09T00:20:24.756Z,17.53
2023-05-09T00:21:25.612Z,17.39
2023-05-09T00:22:26.484Z,17.22
2023-05-09T00:23:27.389Z,17.13
2023-05-09T00:24:28.255Z,17.10
2023-05-09T00:25:29.408Z,17.02
2023-05-09T00:26:29.805Z,16.92
2023-05-09T00:27:30.714Z,16.79
2023-05-09T00:28:31.752Z,16.67
2023-05-09T00:29:32.080Z,16.62
2023-05-09T00:30:32.946Z,16.55
2023-05-09T00:31:33.831Z,16.49
2023-05-09T00:32:34.722Z,16.39
2023-05-09T00:33:35.611Z,16.33
2023-05-09T00:34:36.481Z,16.34
2023-05-09T00:35:37.350Z,16.29
2023-05-09T00:36:38.212Z,16.25
2023-05-09T00:37:39.084Z,16.34
2023-05-09T00:38:39.990Z,16.51
2023-05-09T00:39:40.875Z,16.77
2023-05-09T00:40:41.729Z,17.06
2023-05-09T00:41:42.610Z,17.35
2023-05-09T00:42:43.487Z,17.63
2023-05-09T00:43:44.507Z,17.65
2023-05-09T00:44:45.319Z,17.54
2023-05-09T00:45:46.227Z,17.46
2023-05-09T00:46:47.111Z,17.41
2023-05-09T00:47:47.995Z,17.32
2023-05-09T00:48:48.866Z,17.19
2023-05-09T00:49:49.754Z,16.92
2023-05-09T00:50:50.653Z,16.74
2023-05-09T00:51:51.527Z,16.54
2023-05-09T00:52:52.399Z,16.49
2023-05-09T00:53:53.303Z,16.47
2023-05-09T00:54:54.177Z,16.47
2023-05-09T00:55:55.062Z,16.49
2023-05-09T00:56:55.930Z,16.59
2023-05-09T00:57:56.805Z,16.74
2023-05-09T00:58:57.833Z,16.92
2023-05-09T00:59:58.653Z,16.94
2023-05-09T01:00:59.546Z,16.97
2023-05-09T01:02:00.391Z,16.95
2023-05-09T01:03:01.366Z,16.88
2023-05-09T01:04:02.257Z,16.83
2023-05-09T01:05:03.124Z,16.77
2023-05-09T01:06:04.019Z,16.70
2023-05-09T01:07:04.891Z,16.59
2023-05-09T01:08:05.760Z,16.47
2023-05-09T01:09:06.654Z,16.37
2023-05-09T01:10:08.837Z,16.29
2023-05-09T01:11:08.207Z,16.22
2023-05-09T01:12:09.099Z,15.98
2023-05-09T01:13:09.957Z,15.87
2023-05-09T01:14:10.954Z,15.84
2023-05-09T01:15:11.972Z,15.85
2023-05-09T01:16:12.618Z,15.99
2023-05-09T01:17:13.460Z,16.08
2023-05-09T01:18:14.399Z,16.24
2023-05-09T01:19:14.870Z,16.40
2023-05-09T01:20:15.733Z,16.51
2023-05-09T01:21:16.595Z,16.59
2023-05-09T01:22:17.486Z,16.61
2023-05-09T01:23:18.370Z,16.55
2023-05-09T01:24:19.266Z,16.52
2023-05-09T01:25:20.185Z,16.39
2023-05-09T01:26:21.029Z,16.34
2023-05-09T01:27:21.920Z,16.28
2023-05-09T01:28:22.780Z,16.22
2023-05-09T01:29:23.811Z,16.14
2023-05-09T01:30:24.654Z,16.00
2023-05-09T01:31:25.529Z,16.00
2023-05-09T01:32:26.388Z,16.00
2023-05-09T01:33:27.248Z,15.99
2023-05-09T01:34:28.134Z,15.95
2023-05-09T01:35:29.003Z,15.93
2023-05-09T01:36:29.877Z,15.87
2023-05-09T01:37:30.774Z,15.87
2023-05-09T01:38:31.634Z,15.90
2023-05-09T01:39:32.523Z,15.81
2023-05-09T01:40:33.386Z,15.85
2023-05-09T01:41:34.256Z,16.03
2023-05-09T01:42:35.119Z,16.14
2023-05-09T01:43:36.072Z,16.40
2023-05-09T01:44:37.050Z,16.47
2023-05-09T01:45:37.887Z,16.55
2023-05-09T01:46:38.785Z,16.57
2023-05-09T01:47:39.664Z,16.54
2023-05-09T01:48:40.497Z,16.51
2023-05-09T01:49:42.709Z,16.51
2023-05-09T01:50:42.073Z,16.46
2023-05-09T01:51:43.846Z,16.40
2023-05-09T01:52:43.859Z,16.32
2023-05-09T01:53:44.740Z,16.22
2023-05-09T01:54:45.628Z,16.13
2023-05-09T01:55:46.518Z,16.09
2023-05-09T01:56:47.384Z,16.06
2023-05-09T01:57:48.277Z,15.96
2023-05-09T01:58:49.152Z,15.95
2023-05-09T01:59:50.166Z,16.09
2023-05-09T02:00:51.047Z,16.26
2023-05-09T02:01:51.889Z,16.40
2023-05-09T02:02:52.946Z,16.52
2023-05-09T02:03:53.458Z,16.58
2023-05-09T02:04:54.350Z,16.59
2023-05-09T02:05:55.204Z,16.59
2023-05-09T02:06:56.088Z,16.51
2023-05-09T02:07:56.948Z,16.37
2023-05-09T02:08:57.832Z,16.33
2023-05-09T02:09:58.714Z,16.18
2023-05-09T02:10:59.647Z,16.00
2023-05-09T02:12:00.501Z,15.90
2023-05-09T02:13:01.448Z,15.78
2023-05-09T02:14:02.323Z,15.76
2023-05-09T02:15:03.344Z,15.81
2023-05-09T02:16:04.156Z,15.91
2023-05-09T02:17:05.132Z,16.03
2023-05-09T02:18:06.107Z,16.14
2023-05-09T02:19:07.235Z,16.16
2023-05-09T02:20:07.644Z,16.16
2023-05-09T02:21:08.545Z,16.09
2023-05-09T02:22:09.384Z,16.00
2023-05-09T02:23:10.294Z,15.95
2023-05-09T02:24:11.161Z,15.87
2023-05-09T02:25:12.250Z,15.81
2023-05-09T02:26:12.692Z,15.73
2023-05-09T02:27:13.557Z,15.65
2023-05-09T02:28:14.433Z,15.62
2023-05-09T02:29:15.356Z,15.62
2023-05-09T02:30:16.383Z,15.58
2023-05-09T02:31:16.705Z,15.58
2023-05-09T02:32:17.591Z,15.58
2023-05-09T02:33:18.468Z,15.59
2023-05-09T02:34:19.346Z,15.60
2023-05-09T02:35:20.279Z,15.78
2023-05-09T02:36:21.140Z,15.99
2023-05-09T02:37:22.004Z,16.25
2023-05-09T02:38:22.874Z,16.40
2023-05-09T02:39:23.737Z,16.39
2023-05-09T02:40:24.629Z,16.33
2023-05-09T02:41:25.540Z,16.18
2023-05-09T02:42:26.395Z,16.10
2023-05-09T02:43:27.253Z,15.93
2023-05-09T02:44:28.126Z,15.80
2023-05-09T02:45:29.149Z,15.76
2023-05-09T02:46:30.033Z,15.73
2023-05-09T02:47:30.913Z,15.73
2023-05-09T02:48:31.777Z,15.69
2023-05-09T02:49:32.958Z,15.68
2023-05-09T02:50:33.305Z,15.69
2023-05-09T02:51:34.176Z,15.70
2023-05-09T02:52:35.037Z,15.91
2023-05-09T02:53:35.919Z,16.13
2023-05-09T02:54:36.826Z,16.26
2023-05-09T02:55:37.705Z,16.26
2023-05-09T02:56:38.586Z,16.24
2023-05-09T02:57:39.530Z,16.13
2023-05-09T02:58:40.345Z,16.03
2023-05-09T02:59:41.214Z,16.00
2023-05-09T03:00:42.236Z,15.90
2023-05-09T03:01:43.103Z,15.85
2023-05-09T03:02:44.000Z,15.73
2023-05-09T03:03:44.936Z,15.69
2023-05-09T03:04:45.398Z,15.65
2023-05-09T03:05:46.333Z,15.59
2023-05-09T03:06:47.169Z,15.51
2023-05-09T03:07:48.052Z,15.36
2023-05-09T03:08:48.911Z,15.32
2023-05-09T03:09:49.801Z,15.32
2023-05-09T03:10:50.690Z,15.35
2023-05-09T03:11:51.587Z,15.56
2023-05-09T03:12:52.498Z,15.68
2023-05-09T03:13:53.328Z,15.76
2023-05-09T03:14:54.215Z,15.76
2023-05-09T03:15:55.262Z,15.76
2023-05-09T03:16:55.583Z,15.70
2023-05-09T03:17:56.502Z,15.65
2023-05-09T03:18:57.423Z,15.60
2023-05-09T03:19:58.310Z,15.56
2023-05-09T03:20:59.231Z,15.51
2023-05-09T03:22:00.158Z,15.50
2023-05-09T03:23:01.009Z,15.47
2023-05-09T03:24:01.889Z,15.52
2023-05-09T03:25:02.785Z,15.62
2023-05-09T03:26:03.647Z,15.73
2023-05-09T03:27:04.530Z,15.78
2023-05-09T03:28:05.423Z,15.80
2023-05-09T03:29:06.337Z,15.77
2023-05-09T03:30:07.170Z,15.72
2023-05-09T03:31:08.249Z,15.69
2023-05-09T03:32:08.601Z,15.63
2023-05-09T03:33:09.518Z,15.59
2023-05-09T03:34:10.384Z,15.48
2023-05-09T03:35:11.262Z,15.43
2023-05-09T03:36:12.155Z,15.32
2023-05-09T03:37:13.039Z,15.29
2023-05-09T03:38:13.949Z,15.27
2023-05-09T03:39:14.818Z,15.26
2023-05-09T03:40:15.687Z,15.25
2023-05-09T03:41:16.591Z,15.22
2023-05-09T03:42:17.474Z,15.17
2023-05-09T03:43:18.343Z,15.12
2023-05-09T03:44:19.251Z,15.11
2023-05-09T03:45:20.088Z,15.05
2023-05-09T03:46:21.145Z,15.01
2023-05-09T03:47:21.484Z,14.97
2023-05-09T03:48:22.391Z,14.92
2023-05-09T03:49:23.275Z,14.96
2023-05-09T03:50:24.157Z,15.19
2023-05-09T03:51:25.043Z,15.40
2023-05-09T03:52:25.898Z,15.59
2023-05-09T03:53:26.767Z,15.76
2023-05-09T03:54:27.647Z,15.93
2023-05-09T03:55:28.507Z,16.06
2023-05-09T03:56:29.405Z,16.18
2023-05-09T03:57:30.284Z,16.18
2023-05-09T03:58:31.167Z,16.17
2023-05-09T03:59:32.039Z,16.08
2023-05-09T04:00:32.912Z,15.98
2023-05-09T04:01:33.989Z,15.87
2023-05-09T04:02:34.479Z,15.77
2023-05-09T04:03:35.009Z,15.70
2023-05-09T04:04:35.410Z,15.63
2023-05-09T04:05:36.285Z,15.58
2023-05-09T04:06:37.175Z,15.62
2023-05-09T04:07:38.056Z,15.69
2023-05-09T04:08:38.952Z,15.78
2023-05-09T04:09:39.857Z,15.84
2023-05-09T04:10:40.704Z,15.87
2023-05-09T04:11:41.613Z,15.87
2023-05-09T04:12:42.493Z,15.85
2023-05-09T04:13:43.372Z,15.81
2023-05-09T04:14:46.156Z,15.77
2023-05-09T04:15:51.381Z,15.72
2023-05-09T04:16:45.910Z,15.66
2023-05-09T04:17:46.303Z,15.58
2023-05-09T04:18:47.187Z,15.48
2023-05-09T04:19:48.071Z,15.44
2023-05-09T04:20:48.928Z,15.51
2023-05-09T04:21:49.871Z,15.63
2023-05-09T04:22:50.711Z,15.87
2023-05-09T04:23:51.592Z,15.95
2023-05-09T04:24:52.459Z,15.96
2023-05-09T04:25:53.348Z,15.85
2023-05-09T04:26:54.236Z,15.78
2023-05-09T04:27:55.150Z,15.72
2023-05-09T04:28:55.984Z,15.70
2023-05-09T04:29:56.860Z,15.56
2023-05-09T04:30:57.823Z,15.54
2023-05-09T04:31:58.924Z,15.58
2023-05-09T04:32:59.295Z,15.58
2023-05-09T04:34:00.179Z,15.48
2023-05-09T04:35:01.026Z,15.48
2023-05-09T04:36:01.899Z,15.48
2023-05-09T04:37:02.813Z,15.54
2023-05-09T04:38:03.687Z,15.68
2023-05-09T04:39:04.563Z,15.87
2023-05-09T04:40:05.443Z,16.05
2023-05-09T04:41:06.331Z,16.14
2023-05-09T04:42:07.226Z,16.10
2023-05-09T04:43:08.101Z,16.05
2023-05-09T04:44:08.942Z,16.03
2023-05-09T04:45:09.812Z,15.90
2023-05-09T04:46:10.720Z,15.84
2023-05-09T04:47:11.711Z,15.81
2023-05-09T04:48:12.527Z,15.77
2023-05-09T04:49:13.690Z,15.76
2023-05-09T04:50:14.055Z,15.73
2023-05-09T04:51:14.931Z,15.69
2023-05-09T04:52:15.832Z,15.63
2023-05-09T04:53:16.719Z,15.59
2023-05-09T04:54:17.610Z,15.51
2023-05-09T04:55:18.462Z,15.50
2023-05-09T04:56:19.365Z,15.88
2023-05-09T04:57:20.245Z,16.28
2023-05-09T04:58:21.874Z,16.52
2023-05-09T04:59:21.740Z,16.82
2023-05-09T05:00:22.629Z,17.16
2023-05-09T05:01:23.546Z,17.43
2023-05-09T05:02:24.572Z,17.43
2023-05-09T05:03:24.924Z,17.37
2023-05-09T05:04:25.825Z,17.25
2023-05-09T05:05:26.897Z,17.20
2023-05-09T05:06:27.484Z,17.12
2023-05-09T05:07:28.375Z,16.97
2023-05-09T05:08:29.267Z,16.83
2023-05-09T05:09:30.124Z,16.74
2023-05-09T05:10:30.998Z,16.70
2023-05-09T05:11:31.856Z,16.59
2023-05-09T05:12:32.752Z,16.57
2023-05-09T05:13:33.657Z,16.44
2023-05-09T05:14:34.495Z,16.59
2023-05-09T05:15:35.373Z,16.87
2023-05-09T05:16:36.252Z,17.14
2023-05-09T05:17:37.331Z,17.28
2023-05-09T05:18:37.680Z,17.24
2023-05-09T05:19:38.839Z,17.25
2023-05-09T05:20:39.210Z,17.13
2023-05-09T05:21:40.091Z,17.14
2023-05-09T05:22:41.015Z,17.12
2023-05-09T05:23:41.885Z,17.02
2023-05-09T05:24:42.769Z,16.92
2023-05-09T05:25:43.668Z,16.84
2023-05-09T05:26:44.531Z,16.82
2023-05-09T05:27:45.432Z,16.87
2023-05-09T05:28:46.298Z,16.83
2023-05-09T05:29:47.185Z,16.79
2023-05-09T05:30:48.043Z,16.72
2023-05-09T05:31:48.996Z,16.70
2023-05-09T05:32:50.094Z,17.01
2023-05-09T05:33:50.448Z,17.25
2023-05-09T05:34:51.325Z,17.54
2023-05-09T05:35:52.196Z,17.90
2023-05-09T05:36:53.067Z,18.01
2023-05-09T05:37:54.000Z,18.05
2023-05-09T05:38:54.853Z,17.99
2023-05-09T05:39:55.777Z,17.94
2023-05-09T05:40:56.850Z,17.87
2023-05-09T05:41:57.328Z,17.78
2023-05-09T05:42:58.240Z,17.79
2023-05-09T05:43:59.123Z,17.93
2023-05-09T05:44:59.993Z,18.11
2023-05-09T05:46:00.954Z,18.52
2023-05-09T05:47:01.788Z,19.01
2023-05-09T05:48:02.978Z,19.50
2023-05-09T05:49:03.410Z,19.96
2023-05-09T05:50:04.317Z,20.26
2023-05-09T05:51:05.259Z,20.44
2023-05-09T05:52:05.620Z,20.56
2023-05-09T05:53:06.566Z,20.71
2023-05-09T05:54:08.466Z,20.71
2023-05-09T05:55:08.894Z,20.90
2023-05-09T05:56:09.313Z,21.11
2023-05-09T05:57:10.157Z,21.38
2023-05-09T05:58:11.061Z,21.50
2023-05-09T05:59:13.500Z,21.55
2023-05-09T06:00:12.547Z,21.69
2023-05-09T06:01:13.477Z,21.56
2023-05-09T06:02:14.467Z,21.56
2023-05-09T06:03:15.532Z,21.22
2023-05-09T06:04:15.976Z,20.83
2023-05-09T06:05:16.676Z,20.65
2023-05-09T06:06:17.179Z,20.42
2023-05-09T06:07:18.104Z,20.49
2023-05-09T06:08:19.027Z,20.68
2023-05-09T06:09:19.998Z,20.68
2023-05-09T06:10:20.436Z,20.75
2023-05-09T06:11:21.463Z,20.89
2023-05-09T06:12:21.865Z,20.77
2023-05-09T06:13:22.907Z,20.52
2023-05-09T06:14:23.414Z,20.33
2023-05-09T06:15:23.813Z,20.22
2023-05-09T06:16:24.845Z,19.96
2023-05-09T06:17:25.770Z,19.56
2023-05-09T06:18:26.792Z,19.31
2023-05-09T06:19:28.386Z,19.15
2023-05-09T06:20:28.694Z,19.07
2023-05-09T06:21:29.130Z,19.00
2023-05-09T06:22:30.099Z,19.07
2023-05-09T06:23:31.058Z,19.31
2023-05-09T06:24:35.882Z,19.53
2023-05-09T06:25:33.075Z,19.87
2023-05-09T06:26:33.446Z,20.18
2023-05-09T06:27:34.316Z,20.42
2023-05-09T06:28:35.238Z,20.71
2023-05-09T06:29:36.151Z,21.00
2023-05-09T06:30:37.132Z,21.19
2023-05-09T06:31:37.600Z,21.19
2023-05-09T06:32:38.605Z,21.13
2023-05-09T06:33:39.398Z,21.05
2023-05-09T06:34:39.611Z,20.98
2023-05-09T06:35:40.496Z,21.03
2023-05-09T06:36:41.440Z,21.07
2023-05-09T06:37:42.301Z,21.34
2023-05-09T06:38:43.221Z,21.59
2023-05-09T06:39:44.131Z,21.85
2023-05-09T06:40:44.999Z,22.00
2023-05-09T06:41:45.873Z,21.91
2023-05-09T06:42:46.755Z,21.91
2023-05-09T06:43:48.071Z,21.97
2023-05-09T06:44:48.359Z,21.97
2023-05-09T06:45:49.182Z,22.07
2023-05-09T06:46:49.588Z,22.31
2023-05-09T06:47:50.518Z,22.51
2023-05-09T06:48:51.429Z,22.52
2023-05-09T06:49:52.352Z,22.44
2023-05-09T06:50:53.251Z,22.38
2023-05-09T06:51:54.137Z,22.37
2023-05-09T06:52:55.030Z,22.48
2023-05-09T06:53:55.979Z,22.56
2023-05-09T06:54:57.217Z,22.58
2023-05-09T06:55:57.625Z,22.51
2023-05-09T06:56:58.583Z,22.33
2023-05-09T06:57:59.470Z,22.06
2023-05-09T06:59:00.456Z,21.78
2023-05-09T07:00:01.178Z,21.58
2023-05-09T07:01:02.161Z,21.34
2023-05-09T07:02:02.679Z,21.16
2023-05-09T07:03:03.826Z,20.95
2023-05-09T07:04:04.717Z,20.74
2023-05-09T07:05:05.224Z,20.63
2023-05-09T07:06:06.198Z,20.56
2023-05-09T07:07:07.095Z,20.49
2023-05-09T07:08:08.006Z,20.39
2023-05-09T07:09:09.012Z,20.36
2023-05-09T07:10:11.824Z,20.33
2023-05-09T07:11:10.769Z,20.29
2023-05-09T07:12:11.707Z,20.15
2023-05-09T07:13:12.252Z,20.11
2023-05-09T07:14:12.710Z,20.09
2023-05-09T07:15:15.519Z,20.07
2023-05-09T07:16:14.381Z,20.05
2023-05-09T07:17:22.796Z,20.18
2023-05-09T07:18:16.526Z,20.42
2023-05-09T07:19:16.599Z,20.83
2023-05-09T07:20:16.947Z,21.07
2023-05-09T07:21:19.513Z,21.32
2023-05-09T07:22:18.437Z,21.37
2023-05-09T07:23:19.292Z,21.25
2023-05-09T07:24:20.226Z,21.05
2023-05-09T07:25:21.150Z,20.86
2023-05-09T07:26:22.051Z,20.74
2023-05-09T07:27:22.956Z,20.63
2023-05-09T07:28:23.840Z,20.53
2023-05-09T07:29:24.766Z,20.42
2023-05-09T07:30:25.688Z,20.19
2023-05-09T07:31:26.605Z,20.08
2023-05-09T07:32:27.619Z,20.04
2023-05-09T07:33:28.093Z,20.00
2023-05-09T07:34:31.450Z,20.05
2023-05-09T07:35:29.788Z,20.27
2023-05-09T07:36:30.677Z,20.64
2023-05-09T07:37:31.557Z,21.01
2023-05-09T07:38:32.520Z,21.35
2023-05-09T07:39:33.497Z,21.65
2023-05-09T07:40:34.326Z,21.77
2023-05-09T07:41:35.213Z,22.09
2023-05-09T07:42:36.084Z,22.37
2023-05-09T07:43:37.017Z,22.64
2023-05-09T07:44:37.925Z,22.89
2023-05-09T07:45:38.830Z,23.11
2023-05-09T07:46:39.718Z,23.36
2023-05-09T07:47:40.629Z,23.54
2023-05-09T07:48:41.552Z,23.76
2023-05-09T07:49:42.146Z,24.04
2023-05-09T07:50:43.453Z,24.22
2023-05-09T07:51:43.677Z,24.28
2023-05-09T07:52:44.939Z,24.34
2023-05-09T07:53:45.150Z,24.45
2023-05-09T07:54:45.988Z,24.44
2023-05-09T07:55:46.470Z,24.58
2023-05-09T07:56:47.511Z,24.66
2023-05-09T07:57:48.223Z,24.47
2023-05-09T07:58:48.595Z,24.36
2023-05-09T07:59:49.612Z,24.44
2023-05-09T08:00:50.316Z,24.28
2023-05-09T08:01:50.945Z,24.23
2023-05-09T08:02:51.614Z,23.88
2023-05-09T08:03:52.186Z,23.79
2023-05-09T08:04:54.177Z,23.86
2023-05-09T08:05:53.783Z,23.74
2023-05-09T08:06:54.263Z,23.23
2023-05-09T08:07:55.208Z,22.99
2023-05-09T08:08:56.112Z,22.62
2023-05-09T08:09:57.030Z,22.59
2023-05-09T08:10:58.139Z,22.70
2023-05-09T08:11:58.602Z,22.89
2023-05-09T08:12:59.717Z,22.91
2023-05-09T08:14:00.141Z,22.95
2023-05-09T08:15:01.211Z,23.14
2023-05-09T08:16:01.899Z,23.14
2023-05-09T08:17:02.430Z,23.39
2023-05-09T08:18:03.629Z,23.59
2023-05-09T08:19:04.229Z,23.74
2023-05-09T08:20:12.334Z,23.88
2023-05-09T08:21:06.587Z,23.78
2023-05-09T08:22:07.027Z,23.49
2023-05-09T08:23:07.249Z,23.14
2023-05-09T08:24:08.947Z,22.78
2023-05-09T08:25:08.488Z,22.53
2023-05-09T08:26:10.192Z,22.30
2023-05-09T08:27:10.246Z,22.01
2023-05-09T08:28:10.447Z,21.80
2023-05-09T08:29:10.977Z,21.63
2023-05-09T08:30:11.493Z,21.56
2023-05-09T08:31:12.329Z,21.75
2023-05-09T08:32:12.822Z,22.16
2023-05-09T08:33:13.988Z,22.56
2023-05-09T08:34:15.005Z,22.91
2023-05-09T08:35:15.318Z,23.17
2023-05-09T08:36:15.541Z,23.54
2023-05-09T08:37:16.326Z,23.81
2023-05-09T08:38:17.000Z,23.98
2023-05-09T08:39:17.567Z,24.16
2023-05-09T08:40:19.041Z,24.23
2023-05-09T08:41:18.904Z,24.33
2023-05-09T08:42:19.884Z,24.36
2023-05-09T08:43:20.536Z,24.29
2023-05-09T08:44:21.167Z,23.96
2023-05-09T08:45:21.767Z,23.28
2023-05-09T08:46:22.365Z,22.89
2023-05-09T08:47:23.078Z,22.66
2023-05-09T08:48:23.773Z,22.44
2023-05-09T08:49:24.442Z,22.28
2023-05-09T08:50:24.970Z,22.25
2023-05-09T08:51:25.439Z,22.38
2023-05-09T08:52:26.471Z,22.59
2023-05-09T08:53:26.903Z,22.80
2023-05-09T08:54:27.990Z,23.06
2023-05-09T08:55:28.696Z,23.11
2023-05-09T08:56:29.552Z,22.99
2023-05-09T08:57:30.095Z,22.88
2023-05-09T08:58:30.721Z,22.67
2023-05-09T08:59:32.010Z,22.46
2023-05-09T09:00:32.526Z,22.30
2023-05-09T09:01:33.150Z,22.12
2023-05-09T09:02:33.619Z,21.97
2023-05-09T09:03:35.789Z,21.85
2023-05-09T09:04:35.331Z,21.59
2023-05-09T09:05:42.020Z,21.26
2023-05-09T09:06:37.784Z,21.25
2023-05-09T09:07:37.178Z,21.23
2023-05-09T09:08:38.077Z,21.26
2023-05-09T09:09:39.015Z,21.30
2023-05-09T09:10:40.523Z,21.29
2023-05-09T09:11:40.997Z,21.32
2023-05-09T09:12:41.559Z,21.37
2023-05-09T09:13:42.529Z,21.62
2023-05-09T09:14:43.057Z,22.01
2023-05-09T09:15:43.757Z,22.53
2023-05-09T09:16:44.319Z,23.14
2023-05-09T09:17:44.814Z,23.78
2023-05-09T09:18:45.766Z,24.26
2023-05-09T09:19:46.473Z,24.66
2023-05-09T09:20:46.979Z,25.00
2023-05-09T09:21:47.387Z,25.28
2023-05-09T09:22:48.367Z,25.66
2023-05-09T09:23:49.302Z,25.92
2023-05-09T09:24:49.808Z,26.12
2023-05-09T09:25:50.800Z,26.31
2023-05-09T09:26:51.772Z,26.38
2023-05-09T09:27:52.299Z,26.43
2023-05-09T09:28:52.832Z,26.60
2023-05-09T09:29:53.782Z,26.76
2023-05-09T09:30:54.848Z,26.85
2023-05-09T09:31:55.410Z,27.04
2023-05-09T09:32:55.867Z,27.17
2023-05-09T09:33:56.811Z,27.20
2023-05-09T09:34:57.719Z,27.12
2023-05-09T09:35:58.747Z,27.19
2023-05-09T09:36:59.596Z,27.25
2023-05-09T09:38:00.630Z,27.44
2023-05-09T09:39:01.678Z,27.64
2023-05-09T09:40:01.894Z,27.69
2023-05-09T09:41:03.023Z,27.73
2023-05-09T09:42:03.123Z,27.78
2023-05-09T09:43:03.657Z,27.85
2023-05-09T09:44:05.111Z,27.83
2023-05-09T09:45:05.268Z,27.50
2023-05-09T09:46:06.222Z,27.22
2023-05-09T09:47:06.840Z,26.61
2023-05-09T09:48:07.430Z,26.00
2023-05-09T09:49:07.800Z,25.45
2023-05-09T09:50:08.772Z,25.01
2023-05-09T09:51:11.103Z,24.52
2023-05-09T09:52:10.623Z,24.16
2023-05-09T09:53:11.168Z,23.69
2023-05-09T09:54:12.076Z,23.51
2023-05-09T09:55:13.123Z,23.56
2023-05-09T09:56:13.535Z,23.82
2023-05-09T09:57:14.477Z,24.21
2023-05-09T09:58:15.396Z,24.55
2023-05-09T09:59:16.340Z,24.96
2023-05-09T10:00:17.512Z,25.28
2023-05-09T10:01:18.281Z,25.49
2023-05-09T10:02:18.708Z,25.68
2023-05-09T10:03:19.662Z,25.93
2023-05-09T10:04:20.516Z,26.01
2023-05-09T10:05:21.446Z,26.08
2023-05-09T10:06:22.110Z,26.16
2023-05-09T10:07:22.444Z,26.30
2023-05-09T10:08:23.387Z,26.48
2023-05-09T10:09:24.274Z,26.67
2023-05-09T10:10:25.223Z,26.79
2023-05-09T10:11:26.196Z,26.95
2023-05-09T10:12:27.106Z,27.03
2023-05-09T10:13:28.033Z,27.12
2023-05-09T10:14:28.905Z,27.25
2023-05-09T10:15:33.494Z,27.34
2023-05-09T10:16:40.181Z,27.37
2023-05-09T10:17:32.591Z,27.42
2023-05-09T10:18:32.304Z,27.45
2023-05-09T10:19:32.854Z,27.57
2023-05-09T10:20:33.769Z,27.63
2023-05-09T10:21:36.198Z,27.72
2023-05-09T10:22:36.507Z,27.91
2023-05-09T10:23:36.342Z,28.09
2023-05-09T10:24:37.646Z,28.32
2023-05-09T10:25:38.159Z,28.46
2023-05-09T10:26:39.153Z,28.46
2023-05-09T10:27:40.090Z,28.52
2023-05-09T10:28:41.035Z,28.54
2023-05-09T10:29:41.938Z,28.68
2023-05-09T10:30:42.689Z,28.83
2023-05-09T10:31:43.696Z,28.72
2023-05-09T10:32:45.526Z,28.54
2023-05-09T10:33:45.441Z,28.59
2023-05-09T10:34:46.325Z,28.66
2023-05-09T10:35:47.259Z,28.65
2023-05-09T10:36:48.574Z,28.72
2023-05-09T10:37:48.926Z,28.79
2023-05-09T10:38:49.806Z,28.83
2023-05-09T10:39:51.529Z,28.84
2023-05-09T10:40:51.440Z,28.74
2023-05-09T10:41:53.321Z,28.65
2023-05-09T10:42:52.798Z,28.61
2023-05-09T10:43:54.535Z,28.53
2023-05-09T10:44:54.555Z,28.61
2023-05-09T10:45:55.414Z,28.64
2023-05-09T10:46:57.115Z,28.62
2023-05-09T10:47:57.038Z,28.57
2023-05-09T10:48:57.987Z,28.46
2023-05-09T10:49:58.895Z,28.32
2023-05-09T10:50:59.781Z,28.31
2023-05-09T10:52:01.042Z,28.37
2023-05-09T10:53:01.411Z,28.35
2023-05-09T10:54:02.296Z,28.19
2023-05-09T10:55:03.200Z,28.16
2023-05-09T10:56:04.153Z,28.20
2023-05-09T10:57:05.587Z,28.06
2023-05-09T10:58:06.962Z,27.82
2023-05-09T10:59:06.838Z,27.57
2023-05-09T11:00:07.725Z,27.58
2023-05-09T11:01:08.783Z,27.72
2023-05-09T11:02:09.676Z,27.91
2023-05-09T11:03:10.651Z,28.10
2023-05-09T11:04:11.607Z,28.20
2023-05-09T11:05:12.646Z,28.17
2023-05-09T11:06:13.157Z,28.30
2023-05-09T11:07:14.212Z,28.46
2023-05-09T11:08:14.546Z,28.62
2023-05-09T11:09:16.009Z,28.74
2023-05-09T11:10:16.506Z,28.90
2023-05-09T11:11:17.391Z,29.04
2023-05-09T11:12:18.313Z,29.12
2023-05-09T11:13:19.266Z,29.18
2023-05-09T11:14:21.047Z,29.12
2023-05-09T11:15:20.967Z,29.24
2023-05-09T11:16:21.877Z,29.37
2023-05-09T11:17:23.034Z,29.25
2023-05-09T11:18:23.473Z,29.28
2023-05-09T11:19:24.382Z,29.40
2023-05-09T11:20:25.304Z,29.54
2023-05-09T11:21:26.176Z,29.56
2023-05-09T11:22:27.176Z,29.61
2023-05-09T11:23:28.015Z,29.54
2023-05-09T11:24:28.906Z,29.49
2023-05-09T11:25:29.800Z,29.49
2023-05-09T11:26:30.761Z,29.41
2023-05-09T11:27:31.647Z,29.39
2023-05-09T11:28:32.593Z,29.34
2023-05-09T11:29:33.526Z,29.25
2023-05-09T11:30:34.434Z,29.19
2023-05-09T11:31:35.904Z,29.13
2023-05-09T11:32:36.361Z,29.13
2023-05-09T11:33:37.205Z,29.19
2023-05-09T11:34:38.429Z,29.15
2023-05-09T11:35:38.783Z,29.09
2023-05-09T11:36:39.746Z,29.13
2023-05-09T11:37:41.578Z,29.24
2023-05-09T11:38:41.512Z,29.21
2023-05-09T11:39:42.501Z,29.19
2023-05-09T11:40:43.426Z,29.13
2023-05-09T11:41:44.332Z,29.12
2023-05-09T11:42:45.239Z,29.21
2023-05-09T11:43:46.222Z,29.36
2023-05-09T11:44:46.792Z,29.50
2023-05-09T11:45:47.676Z,29.47
2023-05-09T11:46:49.052Z,29.55
2023-05-09T11:47:49.482Z,29.59
2023-05-09T11:48:50.318Z,29.58
2023-05-09T11:49:51.222Z,29.43
2023-05-09T11:50:52.114Z,29.44
2023-05-09T11:51:52.988Z,29.46
2023-05-09T11:52:54.404Z,29.34
2023-05-09T11:53:54.750Z,29.27
2023-05-09T11:54:55.628Z,29.18
2023-05-09T11:55:56.550Z,29.21
2023-05-09T11:56:58.054Z,29.25
2023-05-09T11:57:57.990Z,29.15
2023-05-09T11:58:58.863Z,28.90
2023-05-09T11:59:59.786Z,28.35
2023-05-09T12:01:00.719Z,28.00
2023-05-09T12:02:01.604Z,27.53
2023-05-09T12:03:02.617Z,27.08
2023-05-09T12:04:03.170Z,26.57
2023-05-09T12:05:03.599Z,26.08
2023-05-09T12:06:04.504Z,25.83
2023-05-09T12:07:05.382Z,25.90
2023-05-09T12:08:06.426Z,26.11
2023-05-09T12:09:07.251Z,26.42
2023-05-09T12:10:08.219Z,26.73
2023-05-09T12:11:09.080Z,27.03
2023-05-09T12:12:09.963Z,27.32
2023-05-09T12:13:10.930Z,27.61
2023-05-09T12:14:11.826Z,27.88
2023-05-09T12:15:12.834Z,28.05
2023-05-09T12:16:13.269Z,28.24
2023-05-09T12:17:14.152Z,28.38
2023-05-09T12:18:15.203Z,28.42
2023-05-09T12:19:15.563Z,28.47
2023-05-09T12:20:17.049Z,28.53
2023-05-09T12:21:18.086Z,28.65
2023-05-09T12:24:02.658Z,28.13
2023-05-09T12:25:02.991Z,27.88
2023-05-09T12:26:03.873Z,27.75
2023-05-09T12:27:04.766Z,27.87
2023-05-09T12:28:05.627Z,28.01
2023-05-09T12:29:06.532Z,28.13
2023-05-09T12:30:07.747Z,28.19
2023-05-09T12:31:08.207Z,28.16
2023-05-09T12:32:09.098Z,28.06
2023-05-09T12:33:10.036Z,27.85
2023-05-09T12:34:10.938Z,27.76
2023-05-09T12:35:11.826Z,27.82
2023-05-09T12:36:12.703Z,27.94
2023-05-09T12:37:13.950Z,28.10
2023-05-09T12:38:14.337Z,28.12
2023-05-09T12:39:15.350Z,28.00
2023-05-09T12:40:16.181Z,28.00
2023-05-09T12:41:30.911Z,27.94
2023-05-09T12:42:18.836Z,28.03
2023-05-09T12:43:19.081Z,27.76
2023-05-09T12:44:19.490Z,27.42
2023-05-09T12:45:20.426Z,27.13
2023-05-09T12:46:21.296Z,27.05
2023-05-09T12:47:22.239Z,26.85
2023-05-09T12:48:23.119Z,26.80
2023-05-09T12:49:24.044Z,26.95
2023-05-09T12:50:24.930Z,27.12
2023-05-09T12:51:25.823Z,27.23
2023-05-09T12:52:27.586Z,27.23
2023-05-09T12:53:27.491Z,27.25
2023-05-09T12:54:28.553Z,27.17
2023-05-09T12:55:28.928Z,27.26
2023-05-09T12:56:29.810Z,27.31
2023-05-09T12:57:31.764Z,27.40
2023-05-09T12:58:32.096Z,27.52
2023-05-09T12:59:32.008Z,27.75
2023-05-09T13:00:32.930Z,27.90
2023-05-09T13:01:34.162Z,27.93
2023-05-09T13:02:34.575Z,28.07
2023-05-09T13:03:35.529Z,28.03
2023-05-09T13:04:36.458Z,28.05